Time;durP1;ratioP1;P1;durP2;ratioP2;P2;SDS_P1;SDS_P2;PMS_P1;PMS_P2;Temp;Humidity;BMP_temperature;BMP_pressure;BME280_temperature;BME280_humidity;BME280_pressure;Samples;Min_cycle;Max_cycle;Signal;HPM_P1;HPM_P2
2023/03/04 00:00:26;;;;;;;28.40;17.92;;;5.50;96.80;;;;;;5094954;28;20540;-64
2023/03/04 00:02:51;;;;;;;27.02;15.23;;;5.50;96.90;;;;;;5093451;28;20044;-64
2023/03/04 00:05:17;;;;;;;31.30;16.50;;;5.40;96.90;;;;;;5094715;28;20383;-64
2023/03/04 00:07:43;;;;;;;28.77;16.98;;;5.40;97.00;;;;;;5088115;28;20060;-64
2023/03/04 00:10:09;;;;;;;28.27;17.27;;;5.30;97.00;;;;;;5072949;28;20415;-64
2023/03/04 00:12:35;;;;;;;31.98;18.13;;;5.30;97.20;;;;;;5089975;28;20035;-64
2023/03/04 00:15:00;;;;;;;31.25;17.42;;;5.20;97.20;;;;;;5094900;28;20481;-63
2023/03/04 00:17:28;;;;;;;28.80;15.80;;;5.20;97.20;;;;;;5102716;28;20046;-64
2023/03/04 00:19:55;;;;;;;28.73;15.30;;;5.20;97.30;;;;;;5114716;28;20101;-64
2023/03/04 00:22:20;;;;;;;28.30;15.77;;;5.20;97.40;;;;;;5111576;28;20483;-64
2023/03/04 00:24:46;;;;;;;28.83;15.35;;;5.20;97.40;;;;;;5112823;28;20080;-64
2023/03/04 00:27:11;;;;;;;30.50;16.88;;;5.20;97.40;;;;;;5100204;28;20571;-64
2023/03/04 00:29:37;;;;;;;27.73;16.63;;;5.20;97.50;;;;;;5114567;28;20012;-64
2023/03/04 00:32:03;;;;;;;26.60;16.90;;;5.20;97.50;;;;;;5107294;28;20067;-64
2023/03/04 00:34:29;;;;;;;31.52;16.13;;;5.20;97.70;;;;;;5114560;28;20019;-64
2023/03/04 00:37:00;;;;;;;28.25;15.18;;;5.20;97.60;;;;;;5108837;28;20034;-63
2023/03/04 00:39:28;;;;;;;29.63;15.95;;;5.30;97.60;;;;;;5113015;28;20016;-64
2023/03/04 00:41:54;;;;;;;30.08;16.48;;;5.30;97.70;;;;;;5102259;28;20054;-64
2023/03/04 00:44:19;;;;;;;27.55;15.40;;;5.30;97.60;;;;;;5088636;28;20468;-64
2023/03/04 00:46:45;;;;;;;25.77;13.48;;;5.30;97.70;;;;;;5085108;28;20396;-64
2023/03/04 00:49:11;;;;;;;30.45;15.90;;;5.30;97.70;;;;;;5112602;28;20383;-63
2023/03/04 00:51:36;;;;;;;29.45;15.38;;;5.30;97.70;;;;;;5104194;28;20035;-64
2023/03/04 00:54:02;;;;;;;29.77;15.20;;;5.30;97.70;;;;;;5114235;28;20515;-64
2023/03/04 00:56:28;;;;;;;30.13;15.35;;;5.30;97.80;;;;;;5102640;28;20032;-64
2023/03/04 00:58:53;;;;;;;37.20;15.30;;;5.30;97.80;;;;;;5106698;28;20078;-64
2023/03/04 01:01:19;;;;;;;26.48;14.45;;;5.30;97.80;;;;;;5093480;28;20187;-62
2023/03/04 01:03:45;;;;;;;28.17;13.88;;;5.30;97.90;;;;;;5111469;28;20027;-62
2023/03/04 01:06:11;;;;;;;27.48;15.02;;;5.30;97.80;;;;;;5095638;28;20035;-63
2023/03/04 01:08:37;;;;;;;27.60;15.50;;;5.30;97.80;;;;;;5109974;28;20502;-63
2023/03/04 01:11:03;;;;;;;27.73;12.65;;;5.30;97.80;;;;;;5097411;28;20056;-63
2023/03/04 01:13:28;;;;;;;30.05;14.13;;;5.30;97.80;;;;;;5090767;28;20032;-63
2023/03/04 01:15:54;;;;;;;28.20;14.50;;;5.30;98.00;;;;;;5087365;28;20032;-63
2023/03/04 01:18:20;;;;;;;23.83;13.48;;;5.30;98.00;;;;;;5105074;28;20031;-63
2023/03/04 01:20:46;;;;;;;27.20;13.50;;;5.30;97.90;;;;;;5105564;28;20502;-63
2023/03/04 01:23:12;;;;;;;23.70;12.20;;;5.30;97.90;;;;;;5110973;28;20077;-63
2023/03/04 01:25:38;;;;;;;24.80;13.15;;;5.40;97.90;;;;;;5097452;28;20445;-63
2023/03/04 01:28:03;;;;;;;28.25;13.13;;;5.30;97.90;;;;;;5111671;28;20031;-63
2023/03/04 01:30:31;;;;;;;29.00;13.18;;;5.30;98.00;;;;;;5096894;28;20081;-63
2023/03/04 01:32:57;;;;;;;24.13;12.88;;;5.30;98.00;;;;;;5092910;28;20035;-64
2023/03/04 01:35:23;;;;;;;24.55;11.35;;;5.30;98.10;;;;;;5099729;28;20023;-64
2023/03/04 01:37:49;;;;;;;23.42;11.50;;;5.30;98.10;;;;;;5111070;28;20034;-64
2023/03/04 01:40:14;;;;;;;19.63;12.10;;;5.30;98.10;;;;;;5099265;28;20031;-64
2023/03/04 01:42:40;;;;;;;25.05;11.55;;;5.30;98.00;;;;;;5108215;28;20032;-64
2023/03/04 01:45:10;;;;;;;22.30;11.00;;;5.30;98.10;;;;;;5100923;28;20415;-63
2023/03/04 01:47:35;;;;;;;24.85;11.23;;;5.30;98.10;;;;;;5099841;28;20390;-64
2023/03/04 01:50:04;;;;;;;22.05;10.10;;;5.30;98.20;;;;;;5091338;28;20023;-63
2023/03/04 01:52:29;;;;;;;22.52;10.50;;;5.30;98.20;;;;;;5106677;28;20034;-64
2023/03/04 01:54:56;;;;;;;17.25;9.45;;;5.30;98.20;;;;;;5099494;28;20115;-64
2023/03/04 01:57:24;;;;;;;21.00;9.48;;;5.30;98.20;;;;;;5104868;28;20457;-64
2023/03/04 02:00:19;;;;;;;17.83;9.48;;;5.30;98.30;;;;;;5100675;28;20028;-64
2023/03/04 02:02:51;;;;;;;18.27;8.80;;;5.40;98.30;;;;;;5106798;28;20058;-64
2023/03/04 02:05:19;;;;;;;21.38;9.15;;;5.40;98.30;;;;;;5093866;28;20048;-64
2023/03/04 02:07:44;;;;;;;16.33;7.43;;;5.40;98.30;;;;;;5106882;28;20035;-64
2023/03/04 02:10:11;;;;;;;23.45;9.52;;;5.50;98.30;;;;;;5093538;28;20387;-64
2023/03/04 02:12:37;;;;;;;20.00;9.43;;;5.50;98.30;;;;;;5105944;28;20039;-64
2023/03/04 02:15:04;;;;;;;16.35;8.10;;;5.50;98.20;;;;;;5092633;28;20032;-64
2023/03/04 02:17:31;;;;;;;23.85;8.65;;;5.60;98.30;;;;;;5090557;28;20035;-64
2023/03/04 02:20:17;;;;;;;20.63;8.50;;;5.60;98.30;;;;;;5096425;28;20034;-64
2023/03/04 02:23:11;;;;;;;18.85;8.60;;;5.60;98.30;;;;;;5102103;28;20035;-64
2023/03/04 02:26:08;;;;;;;19.17;8.65;;;5.60;98.50;;;;;;5078419;28;20032;-64
2023/03/04 02:28:33;;;;;;;19.83;8.43;;;5.70;98.40;;;;;;5093661;28;20035;-64
2023/03/04 02:30:59;;;;;;;17.65;7.80;;;5.70;98.40;;;;;;5099665;28;20016;-64
2023/03/04 02:33:25;;;;;;;17.45;7.50;;;5.70;98.40;;;;;;5108879;28;20461;-63
2023/03/04 02:35:50;;;;;;;19.10;7.60;;;5.70;98.40;;;;;;5079491;28;20028;-63
2023/03/04 02:38:16;;;;;;;18.50;7.60;;;5.80;98.40;;;;;;5076398;28;20089;-64
2023/03/04 02:40:46;;;;;;;16.73;7.20;;;5.80;98.40;;;;;;5095020;28;20503;-64
2023/03/04 02:43:12;;;;;;;12.55;6.75;;;5.80;98.40;;;;;;5107409;27;20028;-63
2023/03/04 02:45:46;;;;;;;16.25;7.80;;;5.90;98.40;;;;;;5094797;28;20485;-64
2023/03/04 02:48:13;;;;;;;15.80;7.23;;;5.90;98.50;;;;;;5108017;28;20378;-63
2023/03/04 02:50:46;;;;;;;22.73;7.18;;;5.90;98.50;;;;;;5106433;28;20099;-64
2023/03/04 02:53:11;;;;;;;15.32;7.10;;;5.90;98.50;;;;;;5102596;28;20026;-65
2023/03/04 02:55:37;;;;;;;18.33;6.35;;;6.00;98.60;;;;;;5094793;28;20106;-64
2023/03/04 02:58:03;;;;;;;27.40;7.75;;;6.00;98.60;;;;;;5106215;28;20066;-64
2023/03/04 03:00:29;;;;;;;21.92;7.68;;;6.00;98.50;;;;;;5093511;28;20122;-64
2023/03/04 03:02:57;;;;;;;17.63;6.78;;;6.00;98.50;;;;;;5107800;28;20036;-64
2023/03/04 03:05:25;;;;;;;20.17;7.88;;;6.00;98.50;;;;;;5091175;28;20089;-63
2023/03/04 03:07:51;;;;;;;18.45;6.82;;;6.10;98.50;;;;;;5105138;28;20056;-64
2023/03/04 03:10:18;;;;;;;25.92;7.63;;;6.10;98.60;;;;;;5084835;28;20032;-64
2023/03/04 03:12:43;;;;;;;17.75;6.28;;;6.10;98.60;;;;;;5107046;28;20028;-63
2023/03/04 03:15:10;;;;;;;15.20;6.07;;;6.10;98.80;;;;;;5090587;28;20107;-63
2023/03/04 03:17:35;;;;;;;19.70;6.95;;;6.20;98.60;;;;;;5089172;28;20036;-63
2023/03/04 03:20:01;;;;;;;15.45;6.28;;;6.20;98.60;;;;;;5091687;28;20024;-63
2023/03/04 03:22:30;;;;;;;13.50;6.30;;;6.20;98.50;;;;;;5103816;28;20395;-63
2023/03/04 03:24:55;;;;;;;13.63;6.70;;;6.20;98.60;;;;;;5109677;28;20031;-63
2023/03/04 03:27:21;;;;;;;14.10;5.40;;;6.20;98.50;;;;;;5103160;28;20078;-64
2023/03/04 03:29:46;;;;;;;15.55;5.72;;;6.30;98.60;;;;;;5091053;28;20024;-63
2023/03/04 03:32:12;;;;;;;12.75;5.90;;;6.20;98.60;;;;;;5103819;28;20122;-63
2023/03/04 03:34:38;;;;;;;10.20;5.13;;;6.20;98.60;;;;;;5109984;28;20032;-64
2023/03/04 03:37:03;;;;;;;14.63;6.20;;;6.20;98.60;;;;;;5105614;28;20028;-63
2023/03/04 03:39:29;;;;;;;16.55;6.25;;;6.20;98.70;;;;;;5091324;28;20026;-63
2023/03/04 03:41:54;;;;;;;12.50;5.60;;;6.30;98.70;;;;;;5103471;28;20031;-63
2023/03/04 03:44:20;;;;;;;13.13;6.00;;;6.30;98.70;;;;;;5095020;28;20401;-63
2023/03/04 03:46:46;;;;;;;11.93;5.55;;;6.30;98.70;;;;;;5101718;28;20498;-63
2023/03/04 03:49:11;;;;;;;17.35;6.25;;;6.30;98.70;;;;;;5103846;28;20023;-63
2023/03/04 03:51:38;;;;;;;15.63;6.43;;;6.40;98.70;;;;;;5110830;28;20051;-63
2023/03/04 03:54:03;;;;;;;12.32;5.45;;;6.40;98.70;;;;;;5093008;28;20073;-63
2023/03/04 03:56:29;;;;;;;17.92;7.00;;;6.40;98.70;;;;;;5099683;28;20424;-64
2023/03/04 03:58:54;;;;;;;12.40;6.13;;;6.40;98.70;;;;;;5094654;28;20089;-64
2023/03/04 04:01:20;;;;;;;13.02;6.15;;;6.50;98.70;;;;;;5100141;28;20034;-64
2023/03/04 04:03:46;;;;;;;17.85;6.13;;;6.40;98.70;;;;;;5097058;28;20538;-64
2023/03/04 04:06:11;;;;;;;14.50;5.25;;;6.50;98.70;;;;;;5099669;28;20387;-64
2023/03/04 04:08:37;;;;;;;12.73;5.72;;;6.50;98.70;;;;;;5115002;28;20080;-64
2023/03/04 04:11:03;;;;;;;12.20;5.60;;;6.50;98.60;;;;;;5106208;28;20020;-64
2023/03/04 04:13:29;;;;;;;15.98;6.47;;;6.50;98.60;;;;;;5090181;28;20050;-65
2023/03/04 04:15:54;;;;;;;14.23;5.03;;;6.60;98.70;;;;;;5087316;28;20023;-65
2023/03/04 04:18:20;;;;;;;10.50;5.18;;;6.60;98.70;;;;;;5114898;28;20023;-65
2023/03/04 04:20:46;;;;;;;13.23;5.75;;;6.60;98.80;;;;;;5107578;28;20027;-63
2023/03/04 04:23:11;;;;;;;9.15;5.32;;;6.60;98.60;;;;;;5113331;28;20097;-63
2023/03/04 04:25:40;;;;;;;13.93;6.20;;;6.60;98.70;;;;;;5108045;28;20027;-63
2023/03/04 04:28:06;;;;;;;13.98;5.35;;;6.60;98.70;;;;;;5114409;28;20035;-63
2023/03/04 04:30:31;;;;;;;11.50;5.70;;;6.70;98.70;;;;;;5108710;28;20024;-63
2023/03/04 04:33:00;;;;;;;16.75;5.57;;;6.70;98.70;;;;;;5099837;28;20055;-64
2023/03/04 04:35:26;;;;;;;10.65;6.13;;;6.70;98.60;;;;;;5093652;28;20035;-64
2023/03/04 04:37:52;;;;;;;13.70;6.50;;;6.70;98.60;;;;;;5112629;28;20118;-64
2023/03/04 04:40:17;;;;;;;15.50;6.15;;;6.70;98.60;;;;;;5108826;28;20104;-64
2023/03/04 04:42:43;;;;;;;14.27;6.38;;;6.80;98.60;;;;;;5108338;28;20097;-64
2023/03/04 04:45:09;;;;;;;17.33;6.10;;;6.70;98.60;;;;;;5095057;28;20432;-65
2023/03/04 04:47:35;;;;;;;16.30;6.13;;;6.80;98.60;;;;;;5095996;28;20506;-66
2023/03/04 04:50:01;;;;;;;15.07;6.50;;;6.80;98.60;;;;;;5077800;28;20108;-65
2023/03/04 04:52:26;;;;;;;14.65;6.00;;;6.80;98.60;;;;;;5107977;28;20032;-65
2023/03/04 04:54:52;;;;;;;10.20;5.18;;;6.80;98.60;;;;;;5109889;27;20016;-65
2023/03/04 04:57:18;;;;;;;20.58;6.40;;;6.80;98.60;;;;;;5105097;28;20497;-67
2023/03/04 04:59:43;;;;;;;12.50;5.28;;;6.80;98.60;;;;;;5102624;28;20067;-67
2023/03/04 05:02:09;;;;;;;19.17;5.72;;;6.80;98.60;;;;;;5104442;28;20487;-66
2023/03/04 05:04:34;;;;;;;10.35;4.38;;;6.80;98.60;;;;;;5090471;28;20027;-67
2023/03/04 05:07:00;;;;;;;13.27;4.75;;;6.90;98.60;;;;;;5092215;28;20031;-66
2023/03/04 05:09:25;;;;;;;10.45;5.63;;;6.90;98.70;;;;;;5093042;28;20039;-66
2023/03/04 05:11:51;;;;;;;16.10;5.35;;;6.90;98.60;;;;;;5091877;28;20031;-66
2023/03/04 05:14:17;;;;;;;12.20;5.05;;;6.90;98.60;;;;;;5091732;28;20028;-67
2023/03/04 05:16:42;;;;;;;15.48;5.38;;;6.90;98.60;;;;;;5092903;28;20035;-66
2023/03/04 05:19:08;;;;;;;14.45;5.32;;;6.90;98.60;;;;;;5092797;28;20352;-67
2023/03/04 05:21:34;;;;;;;13.73;5.05;;;6.90;98.60;;;;;;5096034;28;20038;-66
2023/03/04 05:23:59;;;;;;;11.23;5.20;;;7.00;98.70;;;;;;5087619;28;20097;-67
2023/03/04 05:26:25;;;;;;;13.00;5.53;;;7.00;98.60;;;;;;5096507;28;20019;-67
2023/03/04 05:28:50;;;;;;;9.50;4.97;;;7.00;98.60;;;;;;5102842;28;20621;-66
2023/03/04 05:31:16;;;;;;;9.52;4.18;;;7.00;98.60;;;;;;5093075;28;20067;-67
2023/03/04 05:33:42;;;;;;;11.35;4.88;;;7.00;98.60;;;;;;5098865;28;20054;-67
2023/03/04 05:36:08;;;;;;;10.52;3.97;;;7.00;98.60;;;;;;5093669;28;20035;-66
2023/03/04 05:38:34;;;;;;;12.25;3.90;;;7.00;98.60;;;;;;5090314;28;20029;-67
2023/03/04 05:41:02;;;;;;;11.00;4.35;;;7.00;98.60;;;;;;5091222;28;20063;-66
2023/03/04 05:43:28;;;;;;;12.80;4.25;;;7.00;98.60;;;;;;5098565;28;20036;-66
2023/03/04 05:45:54;;;;;;;11.63;4.88;;;7.10;98.70;;;;;;5092136;28;20062;-67
2023/03/04 05:48:20;;;;;;;9.98;5.20;;;7.10;98.70;;;;;;5092085;28;20063;-66
2023/03/04 05:50:46;;;;;;;10.68;4.22;;;7.10;98.70;;;;;;5093127;28;20449;-66
2023/03/04 05:53:12;;;;;;;9.98;4.60;;;7.10;98.70;;;;;;5097505;28;20551;-67
2023/03/04 05:55:37;;;;;;;14.40;4.07;;;7.10;98.70;;;;;;5090676;28;20032;-67
2023/03/04 05:58:03;;;;;;;8.45;3.15;;;7.10;98.60;;;;;;5105912;28;20398;-67
2023/03/04 06:00:29;;;;;;;10.10;3.92;;;7.10;98.60;;;;;;5095444;28;20376;-66
2023/03/04 06:02:55;;;;;;;7.00;3.97;;;7.10;98.70;;;;;;5110340;28;20076;-66
2023/03/04 06:05:21;;;;;;;10.57;3.78;;;7.10;98.70;;;;;;5091311;28;20028;-67
2023/03/04 06:07:46;;;;;;;11.35;4.35;;;7.10;98.70;;;;;;5105861;28;20074;-67
2023/03/04 06:10:14;;;;;;;15.40;4.07;;;7.10;98.70;;;;;;5084495;28;20424;-66
2023/03/04 06:12:40;;;;;;;7.65;4.32;;;7.20;98.80;;;;;;5090627;28;20422;-67
2023/03/04 06:15:08;;;;;;;10.55;4.07;;;7.20;98.80;;;;;;5092236;28;20062;-66
2023/03/04 06:17:35;;;;;;;10.20;3.88;;;7.20;98.90;;;;;;5103585;28;20123;-68
2023/03/04 06:20:00;;;;;;;10.63;4.03;;;7.20;98.90;;;;;;5104198;28;20031;-67
2023/03/04 06:22:26;;;;;;;9.35;4.13;;;7.20;98.90;;;;;;5110383;28;20039;-67
2023/03/04 06:24:52;;;;;;;9.52;4.15;;;7.20;99.00;;;;;;5095319;28;20103;-66
2023/03/04 06:27:17;;;;;;;10.73;4.43;;;7.20;99.00;;;;;;5099631;28;20365;-67
2023/03/04 06:29:43;;;;;;;8.77;3.53;;;7.30;99.00;;;;;;5101044;28;20015;-67
2023/03/04 06:32:09;;;;;;;13.93;4.57;;;7.20;99.00;;;;;;5110083;28;20023;-67
2023/03/04 06:34:35;;;;;;;7.30;3.50;;;7.20;99.10;;;;;;5095323;28;20020;-67
2023/03/04 06:37:00;;;;;;;10.90;4.03;;;7.30;99.10;;;;;;5096203;28;20031;-68
2023/03/04 06:39:26;;;;;;;7.43;3.97;;;7.30;99.10;;;;;;5095452;28;20471;-67
2023/03/04 06:41:52;;;;;;;11.25;4.15;;;7.20;99.10;;;;;;5106106;28;20132;-67
2023/03/04 06:44:17;;;;;;;9.07;3.00;;;7.20;99.20;;;;;;5094639;28;20183;-67
2023/03/04 06:46:43;;;;;;;11.25;3.75;;;7.30;99.20;;;;;;5079658;28;20469;-67
2023/03/04 06:49:09;;;;;;;9.05;3.45;;;7.30;99.30;;;;;;5096198;28;20028;-67
2023/03/04 06:51:35;;;;;;;8.07;3.75;;;7.30;99.30;;;;;;5095804;28;20060;-67
2023/03/04 06:54:00;;;;;;;10.40;3.78;;;7.30;99.40;;;;;;5097938;28;20101;-67
2023/03/04 06:56:26;;;;;;;7.90;3.50;;;7.30;99.40;;;;;;5091779;28;20551;-66
2023/03/04 06:58:52;;;;;;;7.45;3.15;;;7.30;99.50;;;;;;5098576;28;20031;-68
2023/03/04 07:01:22;;;;;;;8.43;3.67;;;7.30;99.50;;;;;;5084070;28;20082;-68
2023/03/04 07:03:49;;;;;;;8.98;3.92;;;7.30;99.50;;;;;;5084413;28;20379;-66
2023/03/04 07:06:18;;;;;;;8.73;3.33;;;7.40;99.60;;;;;;5090927;28;20032;-68
2023/03/04 07:08:44;;;;;;;9.88;4.43;;;7.30;99.70;;;;;;5098134;28;20024;-67
2023/03/04 07:11:11;;;;;;;11.13;4.28;;;7.40;99.70;;;;;;5091002;28;20480;-67
2023/03/04 07:13:39;;;;;;;9.13;4.43;;;7.40;99.80;;;;;;5098928;28;20044;-68
2023/03/04 07:16:06;;;;;;;10.05;3.83;;;7.40;99.90;;;;;;5095716;28;20056;-67
2023/03/04 07:18:32;;;;;;;9.70;3.50;;;7.40;99.90;;;;;;5095093;28;20109;-67
2023/03/04 07:20:57;;;;;;;7.40;3.80;;;7.30;99.90;;;;;;5095714;28;20116;-66
2023/03/04 07:23:23;;;;;;;10.80;4.68;;;7.30;99.90;;;;;;5094425;28;20115;-67
2023/03/04 07:25:49;;;;;;;11.80;4.50;;;7.40;99.90;;;;;;5095744;28;20628;-67
2023/03/04 07:28:16;;;;;;;12.82;4.28;;;7.40;99.90;;;;;;5099004;28;20028;-67
2023/03/04 07:30:41;;;;;;;11.52;4.10;;;7.40;99.90;;;;;;5095396;28;20027;-69
2023/03/04 07:33:07;;;;;;;10.23;4.13;;;7.40;99.90;;;;;;5095025;28;20111;-69
2023/03/04 07:35:33;;;;;;;8.00;3.75;;;7.40;99.90;;;;;;5093646;28;20031;-68
2023/03/04 07:37:58;;;;;;;11.15;4.20;;;7.40;99.90;;;;;;5088500;28;20502;-68
2023/03/04 07:40:24;;;;;;;8.82;3.92;;;7.40;99.90;;;;;;5094406;28;20028;-67
2023/03/04 07:42:51;;;;;;;9.48;3.80;;;7.50;99.90;;;;;;5096131;28;20080;-69
2023/03/04 07:45:16;;;;;;;9.07;4.10;;;7.50;99.90;;;;;;5094917;28;20111;-67
2023/03/04 07:47:42;;;;;;;10.38;4.40;;;7.50;99.90;;;;;;5102013;28;20585;-66
2023/03/04 07:50:09;;;;;;;8.05;4.20;;;7.60;99.90;;;;;;5085397;28;20028;-66
2023/03/04 07:52:43;;;;;;;8.25;3.53;;;7.60;99.90;;;;;;5099063;28;20523;-66
2023/03/04 07:55:10;;;;;;;7.05;3.78;;;7.60;99.90;;;;;;5101444;28;20021;-66
2023/03/04 07:57:38;;;;;;;7.88;4.45;;;7.60;99.90;;;;;;5089544;28;20048;-65
2023/03/04 08:00:05;;;;;;;12.65;5.85;;;7.60;99.90;;;;;;5101383;28;20028;-65
2023/03/04 08:02:31;;;;;;;9.60;4.50;;;7.60;99.90;;;;;;5103188;28;20101;-66
2023/03/04 08:04:56;;;;;;;6.88;3.63;;;7.70;99.90;;;;;;5095027;28;20028;-66
2023/03/04 08:07:22;;;;;;;5.90;3.35;;;7.70;99.90;;;;;;5102508;28;20028;-66
2023/03/04 08:09:48;;;;;;;7.05;3.40;;;7.70;99.90;;;;;;5099888;28;20028;-66
2023/03/04 08:12:13;;;;;;;8.15;3.45;;;7.70;99.90;;;;;;5102315;28;20515;-67
2023/03/04 08:14:39;;;;;;;4.00;2.75;;;7.70;99.90;;;;;;5092174;28;20031;-66
2023/03/04 08:17:05;;;;;;;4.38;3.22;;;7.70;99.90;;;;;;5103945;28;20039;-66
2023/03/04 08:19:30;;;;;;;9.18;3.25;;;7.70;99.90;;;;;;5099449;28;20023;-67
2023/03/04 08:21:56;;;;;;;3.53;2.35;;;7.80;99.90;;;;;;5091291;28;20044;-67
2023/03/04 08:24:21;;;;;;;7.40;2.90;;;7.80;99.90;;;;;;5078102;28;20020;-67
2023/03/04 08:26:49;;;;;;;4.00;2.47;;;7.80;99.90;;;;;;5092280;28;20383;-65
2023/03/04 08:29:21;;;;;;;3.90;2.60;;;7.80;99.90;;;;;;5100909;28;20069;-67
2023/03/04 08:31:48;;;;;;;5.60;2.55;;;7.80;99.90;;;;;;5110651;28;20027;-67
2023/03/04 08:34:14;;;;;;;4.00;2.42;;;7.80;99.90;;;;;;5106850;28;20031;-66
2023/03/04 08:36:43;;;;;;;8.40;2.47;;;7.80;99.90;;;;;;5099034;28;20355;-67
2023/03/04 08:39:11;;;;;;;4.93;2.40;;;7.90;99.90;;;;;;5102383;28;20051;-65
2023/03/04 08:41:37;;;;;;;5.53;2.40;;;7.90;99.90;;;;;;5097132;28;20391;-65
2023/03/04 08:44:03;;;;;;;5.32;2.38;;;7.90;99.90;;;;;;5101046;28;20032;-66
2023/03/04 08:46:29;;;;;;;4.78;2.33;;;7.90;99.90;;;;;;5090416;28;20020;-66
2023/03/04 08:48:55;;;;;;;6.43;2.22;;;7.90;99.90;;;;;;5110312;28;20779;-67
2023/03/04 08:51:21;;;;;;;6.13;2.70;;;7.90;99.90;;;;;;5099396;28;20059;-66
2023/03/04 08:53:46;;;;;;;6.28;2.13;;;8.00;99.90;;;;;;5094368;28;20028;-66
2023/03/04 08:56:12;;;;;;;7.25;2.42;;;8.00;99.90;;;;;;5102277;28;20078;-67
2023/03/04 08:58:39;;;;;;;7.82;2.08;;;8.00;99.90;;;;;;5102493;28;20056;-67
2023/03/04 09:01:08;;;;;;;6.63;2.58;;;8.00;99.60;;;;;;5093212;28;20024;-68
2023/03/04 09:03:33;;;;;;;6.88;2.50;;;8.00;99.40;;;;;;5103160;28;20039;-67
2023/03/04 09:06:01;;;;;;;6.22;2.67;;;8.00;99.20;;;;;;5094472;28;20751;-67
2023/03/04 09:08:27;;;;;;;10.07;2.50;;;8.10;99.20;;;;;;5109659;28;20535;-66
2023/03/04 09:10:53;;;;;;;8.15;2.50;;;8.20;99.10;;;;;;5078446;28;20036;-67
2023/03/04 09:13:23;;;;;;;9.02;3.13;;;8.20;99.00;;;;;;5093898;28;20102;-67
2023/03/04 09:15:50;;;;;;;6.18;2.13;;;8.20;98.80;;;;;;5092419;28;20032;-66
2023/03/04 09:18:17;;;;;;;7.68;2.65;;;8.40;98.80;;;;;;5091986;28;20098;-67
2023/03/04 09:20:43;;;;;;;6.38;2.75;;;8.40;98.90;;;;;;5092975;28;20020;-67
2023/03/04 09:23:09;;;;;;;4.53;2.03;;;8.50;98.80;;;;;;5100451;28;20541;-67
2023/03/04 09:25:36;;;;;;;4.15;1.90;;;8.50;98.60;;;;;;5104648;28;20039;-67
2023/03/04 09:28:03;;;;;;;12.27;2.60;;;8.50;98.30;;;;;;5092609;28;20024;-67
2023/03/04 09:30:29;;;;;;;6.88;2.50;;;8.50;98.00;;;;;;5095806;28;20387;-67
2023/03/04 09:32:55;;;;;;;7.97;2.35;;;8.50;98.20;;;;;;5080552;28;20027;-66
2023/03/04 09:35:21;;;;;;;7.72;2.40;;;8.50;98.20;;;;;;5086565;28;20078;-66
2023/03/04 09:37:47;;;;;;;7.50;2.92;;;8.50;98.20;;;;;;5096439;28;20023;-66
2023/03/04 09:40:20;;;;;;;9.60;2.95;;;8.50;98.00;;;;;;5109172;28;20035;-66
2023/03/04 09:42:50;;;;;;;4.78;2.05;;;8.50;98.00;;;;;;5091390;28;20038;-66
2023/03/04 09:45:19;;;;;;;11.80;2.92;;;8.50;98.10;;;;;;5092886;28;20107;-66
2023/03/04 09:47:47;;;;;;;6.97;2.80;;;8.50;98.00;;;;;;5094914;28;20036;-67
2023/03/04 09:50:13;;;;;;;6.10;2.38;;;8.60;97.80;;;;;;5095294;28;20153;-66
2023/03/04 09:53:16;;;;;;;7.53;3.13;;;8.50;97.40;;;;;;5108784;28;20106;-66
2023/03/04 09:55:47;;;;;;;4.57;2.20;;;8.50;97.30;;;;;;5109012;28;20054;-66
2023/03/04 09:58:22;;;;;;;7.40;2.45;;;8.60;97.40;;;;;;5100951;28;20072;-66
2023/03/04 10:01:19;;;;;;;7.28;2.60;;;8.60;97.30;;;;;;5079853;28;20039;-65
2023/03/04 10:04:05;;;;;;;9.10;2.55;;;8.60;97.20;;;;;;5079327;28;20036;-67
2023/03/04 10:06:31;;;;;;;10.30;2.20;;;8.60;97.10;;;;;;5072315;28;20476;-67
2023/03/04 10:09:17;;;;;;;8.52;2.50;;;8.60;97.10;;;;;;5084641;28;20118;-66
2023/03/04 10:11:47;;;;;;;6.22;2.25;;;8.60;97.20;;;;;;5073025;28;20037;-67
2023/03/04 10:14:37;;;;;;;8.02;3.28;;;8.60;97.10;;;;;;5090278;28;20040;-67
2023/03/04 10:17:14;;;;;;;8.50;3.22;;;8.60;96.90;;;;;;5081864;28;20039;-67
2023/03/04 10:20:01;;;;;;;6.05;2.45;;;8.70;97.00;;;;;;5091622;28;20053;-69
2023/03/04 10:22:49;;;;;;;6.22;2.40;;;8.70;96.50;;;;;;5073633;28;20063;-67
2023/03/04 10:25:27;;;;;;;9.20;3.05;;;8.70;96.60;;;;;;5108075;28;20475;-66
2023/03/04 10:28:01;;;;;;;6.90;3.28;;;8.70;96.50;;;;;;5095608;28;20075;-65
2023/03/04 10:30:43;;;;;;;5.63;2.28;;;8.80;96.60;;;;;;5094876;28;20066;-66
2023/03/04 10:33:15;;;;;;;7.03;2.28;;;8.90;96.60;;;;;;5086566;28;20438;-66
2023/03/04 10:35:44;;;;;;;9.48;3.35;;;8.90;96.50;;;;;;5103296;28;20027;-67
2023/03/04 10:38:12;;;;;;;8.23;2.97;;;9.00;96.30;;;;;;5108328;28;20259;-66
2023/03/04 10:40:39;;;;;;;5.07;2.25;;;9.00;95.90;;;;;;5094096;28;20028;-66
2023/03/04 10:43:07;;;;;;;6.15;2.42;;;9.00;96.10;;;;;;5096356;28;20126;-67
2023/03/04 10:45:38;;;;;;;8.20;2.72;;;9.10;96.10;;;;;;5112096;28;20024;-67
2023/03/04 10:48:04;;;;;;;12.55;3.55;;;9.20;96.00;;;;;;5095898;28;20437;-66
2023/03/04 10:50:31;;;;;;;10.10;2.65;;;9.20;95.50;;;;;;5091919;28;20532;-66
2023/03/04 10:52:57;;;;;;;7.57;2.92;;;9.30;95.30;;;;;;5091046;28;20044;-66
2023/03/04 10:55:23;;;;;;;6.25;2.83;;;9.20;94.60;;;;;;5109342;28;20055;-67
2023/03/04 10:57:52;;;;;;;8.90;2.78;;;9.30;94.90;;;;;;5092970;28;20078;-66
2023/03/04 11:00:33;;;;;;;6.65;2.92;;;9.30;94.50;;;;;;5110625;28;20023;-65
2023/03/04 11:03:31;;;;;;;13.45;3.25;;;9.30;94.60;;;;;;5095151;28;20122;-66
2023/03/04 11:06:19;;;;;;;8.65;3.10;;;9.30;94.40;;;;;;5067856;28;20115;-65
2023/03/04 11:08:53;;;;;;;9.50;2.70;;;9.30;94.40;;;;;;5100478;28;20028;-67
2023/03/04 11:11:41;;;;;;;9.57;3.47;;;9.30;94.20;;;;;;5071685;28;20033;-66
2023/03/04 11:14:34;;;;;;;7.70;3.13;;;9.30;93.90;;;;;;5092803;28;20367;-67
2023/03/04 11:17:20;;;;;;;11.90;3.28;;;9.20;93.40;;;;;;5078100;28;20028;-65
2023/03/04 11:20:09;;;;;;;10.80;3.08;;;9.10;93.50;;;;;;5081774;28;20032;-65
2023/03/04 11:22:34;;;;;;;9.27;3.22;;;9.10;93.70;;;;;;5104976;28;20035;-65
2023/03/04 11:25:07;;;;;;;12.20;3.13;;;9.10;93.80;;;;;;5093329;28;20054;-65
2023/03/04 11:27:44;;;;;;;6.25;2.78;;;9.10;93.60;;;;;;5089143;28;20369;-67
2023/03/04 11:30:29;;;;;;;9.30;3.63;;;9.10;93.20;;;;;;5090762;28;20027;-67
2023/03/04 11:33:04;;;;;;;10.30;4.00;;;9.10;93.30;;;;;;5079614;28;20036;-66
2023/03/04 11:35:41;;;;;;;10.68;3.40;;;9.20;93.50;;;;;;5080691;28;20035;-67
2023/03/04 11:38:23;;;;;;;9.02;2.75;;;9.20;93.20;;;;;;5092536;28;20028;-67
2023/03/04 11:40:59;;;;;;;12.65;3.22;;;9.30;93.30;;;;;;5083068;28;20050;-66
2023/03/04 11:43:33;;;;;;;11.35;3.25;;;9.30;92.60;;;;;;5098147;28;20068;-66
2023/03/04 11:46:17;;;;;;;8.98;2.85;;;9.30;92.80;;;;;;5092452;28;20527;-67
2023/03/04 11:49:05;;;;;;;9.60;3.03;;;9.30;93.00;;;;;;5088492;28;20479;-67
2023/03/04 11:51:49;;;;;;;15.85;3.70;;;9.30;92.90;;;;;;5095076;28;20157;-66
2023/03/04 11:54:26;;;;;;;13.55;3.92;;;9.40;93.00;;;;;;5087162;28;20024;-64
2023/03/04 11:57:27;;;;;;;8.77;3.40;;;9.30;92.90;;;;;;5096090;28;20036;-66
2023/03/04 12:00:17;;;;;;;12.25;4.68;;;9.40;92.80;;;;;;5091665;28;20099;-67
2023/03/04 12:03:07;;;;;;;13.80;4.45;;;9.20;92.30;;;;;;5093980;28;20122;-68
2023/03/04 12:06:06;;;;;;;13.20;3.53;;;9.10;92.10;;;;;;5082910;28;20423;-66
2023/03/04 12:08:35;;;;;;;10.63;3.72;;;9.10;92.20;;;;;;5078968;28;20549;-68
2023/03/04 12:11:27;;;;;;;12.48;4.70;;;9.10;92.30;;;;;;5089395;28;20514;-67
2023/03/04 12:14:08;;;;;;;9.75;3.75;;;9.00;92.00;;;;;;5079796;28;20048;-67
2023/03/04 12:17:03;;;;;;;12.10;3.17;;;9.00;91.90;;;;;;5097115;28;20432;-67
2023/03/04 12:19:46;;;;;;;13.02;3.05;;;8.90;91.50;;;;;;5109043;28;20048;-67
2023/03/04 12:22:45;;;;;;;9.18;3.72;;;8.90;91.60;;;;;;5094289;28;20043;-67
2023/03/04 12:25:19;;;;;;;13.95;3.45;;;8.80;91.70;;;;;;5085002;28;20028;-68
2023/03/04 12:28:19;;;;;;;12.05;3.35;;;8.80;91.60;;;;;;5107766;28;20061;-67
2023/03/04 12:31:17;;;;;;;9.52;3.30;;;8.90;91.80;;;;;;5061423;28;20028;-67
2023/03/04 12:34:06;;;;;;;11.02;3.67;;;8.90;91.70;;;;;;5049091;28;20043;-68
2023/03/04 12:36:56;;;;;;;11.10;3.30;;;9.00;91.80;;;;;;5098584;28;20024;-67
2023/03/04 12:39:24;;;;;;;6.60;3.20;;;9.10;91.40;;;;;;5105636;28;20034;-67
2023/03/04 12:42:09;;;;;;;11.68;3.70;;;9.10;91.10;;;;;;5099555;28;20019;-68
2023/03/04 12:45:16;;;;;;;12.85;4.55;;;9.10;90.70;;;;;;5097036;28;20031;-69
2023/03/04 12:48:06;;;;;;;8.93;3.22;;;9.00;90.60;;;;;;5078062;28;20058;-68
2023/03/04 12:51:04;;;;;;;7.78;2.97;;;9.00;91.00;;;;;;5090236;28;20479;-68
2023/03/04 12:53:53;;;;;;;12.07;3.78;;;9.10;90.90;;;;;;5094702;28;20055;-70
2023/03/04 12:56:26;;;;;;;10.05;2.85;;;9.10;91.00;;;;;;5092026;28;20138;-69
2023/03/04 12:58:53;;;;;;;6.75;2.88;;;9.10;90.00;;;;;;5075746;28;20167;-68
2023/03/04 13:01:28;;;;;;;8.70;3.65;;;9.00;89.80;;;;;;5084017;28;20512;-68